Time;durP1;ratioP1;P1;durP2;ratioP2;P2;SDS_P1;SDS_P2;PMS_P1;PMS_P2;Temp;Humidity;BMP_temperature;BMP_pressure;BME280_temperature;BME280_humidity;BME280_pressure;Samples;Min_cycle;Max_cycle;Signal;HPM_P1;HPM_P2
2021/08/02 00:01:30;;;;;;;6.37;5.63;;;16.50;99.90;;;;;;5047829;28;20468;-37
2021/08/02 00:04:09;;;;;;;6.90;6.20;;;16.50;99.90;;;;;;5034992;28;20440;-37
2021/08/02 00:06:50;;;;;;;6.50;5.90;;;16.40;99.90;;;;;;5028547;28;20531;-38
2021/08/02 00:09:21;;;;;;;6.70;5.90;;;16.40;99.90;;;;;;5030489;28;20457;-37
2021/08/02 00:11:54;;;;;;;8.10;6.20;;;16.40;99.90;;;;;;5030318;28;20432;-37
2021/08/02 00:14:21;;;;;;;10.43;6.00;;;16.40;99.90;;;;;;5030265;28;20897;-37
2021/08/02 00:16:47;;;;;;;7.30;6.23;;;16.40;99.90;;;;;;5035497;28;20425;-37
2021/08/02 00:19:13;;;;;;;7.00;6.30;;;16.40;99.90;;;;;;5028447;28;20447;-37
2021/08/02 00:21:41;;;;;;;6.73;6.03;;;16.40;99.90;;;;;;5028451;28;20527;-37
2021/08/02 00:24:07;;;;;;;7.37;6.67;;;16.30;99.90;;;;;;5033320;28;20208;-37
2021/08/02 00:26:32;;;;;;;7.73;6.93;;;16.30;99.90;;;;;;5034231;28;20423;-37
2021/08/02 00:28:59;;;;;;;7.30;6.60;;;16.40;99.90;;;;;;5028418;28;20976;-37
2021/08/02 00:31:26;;;;;;;7.57;6.77;;;16.40;99.90;;;;;;5029172;28;20193;-36
2021/08/02 00:33:51;;;;;;;10.00;7.20;;;16.40;99.90;;;;;;5027949;28;20463;-39
2021/08/02 00:36:32;;;;;;;9.70;7.83;;;16.40;99.90;;;;;;5027014;28;20501;-37
2021/08/02 00:39:28;;;;;;;9.87;7.93;;;16.30;99.90;;;;;;5035659;28;20196;-37
2021/08/02 00:42:32;;;;;;;11.30;7.87;;;16.40;99.90;;;;;;5038064;28;20445;-37
2021/08/02 00:45:03;;;;;;;11.07;9.80;;;16.40;99.90;;;;;;5028981;28;20428;-37
2021/08/02 00:47:52;;;;;;;12.13;9.90;;;16.40;99.90;;;;;;5027812;28;20443;-37
2021/08/02 00:50:25;;;;;;;11.73;9.53;;;16.50;99.90;;;;;;5035979;28;20511;-37
2021/08/02 00:53:05;;;;;;;11.57;9.87;;;16.40;99.90;;;;;;5034094;28;20425;-37
2021/08/02 00:55:37;;;;;;;12.33;10.53;;;16.50;99.90;;;;;;5036457;28;20421;-37
2021/08/02 00:58:07;;;;;;;11.70;9.90;;;16.50;99.90;;;;;;5027334;28;20432;-37
2021/08/02 01:00:33;;;;;;;13.00;9.00;;;16.50;99.90;;;;;;5037547;28;20460;-37
2021/08/02 01:03:04;;;;;;;12.40;9.33;;;16.40;99.90;;;;;;5028260;28;20423;-37
2021/08/02 01:05:30;;;;;;;10.43;8.53;;;16.40;99.90;;;;;;5039449;28;20511;-37
2021/08/02 01:08:01;;;;;;;10.00;8.50;;;16.40;99.90;;;;;;5041361;28;20602;-37
2021/08/02 01:10:30;;;;;;;9.00;7.80;;;16.50;99.90;;;;;;5036429;28;20426;-37
2021/08/02 01:13:00;;;;;;;9.40;7.97;;;16.40;99.90;;;;;;5027566;28;20431;-37
2021/08/02 01:15:26;;;;;;;8.10;6.27;;;16.30;99.90;;;;;;5034134;28;20932;-37
2021/08/02 01:17:55;;;;;;;9.33;7.27;;;16.30;99.90;;;;;;5027345;28;20418;-37
2021/08/02 01:20:23;;;;;;;7.30;6.30;;;16.30;99.90;;;;;;5027189;28;21137;-37
2021/08/02 01:22:49;;;;;;;7.40;5.50;;;16.30;99.90;;;;;;5032552;28;20428;-41
2021/08/02 01:25:49;;;;;;;8.07;5.83;;;16.20;99.90;;;;;;5043235;28;20805;-37
2021/08/02 01:28:15;;;;;;;6.07;5.47;;;16.20;99.90;;;;;;5024624;28;20435;-37
2021/08/02 01:30:58;;;;;;;6.30;5.30;;;16.10;99.90;;;;;;5032468;28;20914;-39
2021/08/02 01:33:29;;;;;;;7.67;4.87;;;16.00;99.90;;;;;;5027106;28;20197;-36
2021/08/02 01:36:03;;;;;;;5.53;4.67;;;16.00;99.90;;;;;;5026210;28;20427;-37
2021/08/02 01:38:31;;;;;;;6.50;4.60;;;16.00;99.90;;;;;;5032945;28;20543;-37
2021/08/02 01:40:57;;;;;;;4.60;4.00;;;15.90;99.90;;;;;;5041004;28;20985;-37
2021/08/02 01:43:24;;;;;;;4.37;3.97;;;15.90;99.90;;;;;;5030127;28;20413;-38
2021/08/02 01:46:16;;;;;;;4.90;4.00;;;15.90;99.90;;;;;;5036389;28;20420;-37
2021/08/02 01:48:55;;;;;;;5.67;4.03;;;15.90;99.90;;;;;;5027076;28;20504;-37
2021/08/02 01:51:36;;;;;;;6.57;4.40;;;15.90;99.90;;;;;;5026928;28;20421;-37
2021/08/02 01:54:26;;;;;;;4.77;4.27;;;15.90;99.90;;;;;;5033343;28;20451;-37
2021/08/02 01:57:19;;;;;;;6.90;3.63;;;15.90;99.90;;;;;;5038868;28;20511;-37
2021/08/02 01:59:55;;;;;;;4.30;3.87;;;16.00;99.90;;;;;;5030738;28;20936;-37
2021/08/02 02:02:21;;;;;;;5.70;5.00;;;15.90;99.90;;;;;;5043284;28;20473;-37
2021/08/02 02:05:06;;;;;;;5.60;5.00;;;15.80;99.90;;;;;;5030689;28;20512;-37
2021/08/02 02:08:12;;;;;;;6.47;5.57;;;15.80;99.90;;;;;;5030927;28;20523;-36
2021/08/02 02:10:41;;;;;;;7.03;6.30;;;15.80;99.90;;;;;;5016772;28;20590;-37
2021/08/02 02:13:18;;;;;;;6.30;5.80;;;15.70;99.90;;;;;;5016397;28;20440;-37
2021/08/02 02:15:48;;;;;;;6.70;5.57;;;15.70;99.90;;;;;;5029475;28;20444;-37
2021/08/02 02:18:15;;;;;;;7.43;5.30;;;15.60;99.90;;;;;;5030302;28;20965;-36
2021/08/02 02:20:43;;;;;;;4.80;3.70;;;15.60;99.90;;;;;;5030524;28;20456;-37
2021/08/02 02:23:12;;;;;;;5.53;4.33;;;15.50;99.90;;;;;;5036448;28;20437;-37
2021/08/02 02:25:39;;;;;;;5.53;3.80;;;15.60;99.90;;;;;;5035892;28;20520;-37
2021/08/02 02:28:05;;;;;;;6.60;4.50;;;15.60;99.90;;;;;;5031088;28;20766;-37
2021/08/02 02:30:31;;;;;;;4.93;4.00;;;15.60;99.90;;;;;;5038878;28;20524;-37
2021/08/02 02:32:58;;;;;;;5.07;3.50;;;15.60;99.90;;;;;;5030370;28;20194;-37
2021/08/02 02:35:25;;;;;;;5.83;3.90;;;15.50;99.90;;;;;;5030291;28;20429;-37
2021/08/02 02:37:53;;;;;;;7.60;4.07;;;15.50;99.90;;;;;;5030653;28;20931;-39
2021/08/02 02:40:20;;;;;;;4.27;3.80;;;15.50;99.90;;;;;;5032253;28;20507;-37
2021/08/02 02:42:46;;;;;;;4.30;3.73;;;15.50;99.90;;;;;;5033089;28;20435;-36
2021/08/02 02:45:13;;;;;;;7.77;4.80;;;15.40;99.90;;;;;;5029914;28;20567;-37
2021/08/02 02:47:39;;;;;;;4.77;3.40;;;15.50;99.90;;;;;;5037211;28;20427;-36
2021/08/02 02:50:06;;;;;;;6.80;4.50;;;15.50;99.90;;;;;;5030172;28;20421;-36
2021/08/02 02:52:33;;;;;;;4.97;3.77;;;15.40;99.90;;;;;;5029737;28;20512;-36
2021/08/02 02:55:00;;;;;;;6.00;4.60;;;15.50;99.90;;;;;;5040988;28;20432;-37
2021/08/02 02:57:26;;;;;;;6.03;4.60;;;15.50;99.90;;;;;;5048489;28;20972;-37
2021/08/02 02:59:52;;;;;;;4.63;4.23;;;15.40;99.90;;;;;;5029958;28;20465;-37
2021/08/02 03:02:21;;;;;;;4.90;4.40;;;15.40;99.90;;;;;;5033469;28;20183;-36
2021/08/02 03:04:53;;;;;;;5.40;4.23;;;15.40;99.90;;;;;;5029302;28;20252;-37
2021/08/02 03:07:19;;;;;;;5.60;4.63;;;15.40;99.90;;;;;;5028552;28;20429;-36
2021/08/02 03:09:48;;;;;;;7.33;5.00;;;15.30;99.90;;;;;;5042178;28;20435;-36
2021/08/02 03:12:14;;;;;;;4.47;4.07;;;15.30;99.90;;;;;;5038664;28;20781;-37
2021/08/02 03:14:41;;;;;;;6.50;3.90;;;15.30;99.90;;;;;;5029463;28;20425;-37
2021/08/02 03:17:08;;;;;;;4.33;3.93;;;15.40;99.90;;;;;;5041461;28;20274;-37
2021/08/02 03:19:35;;;;;;;5.20;3.67;;;15.30;99.90;;;;;;5029660;28;20422;-37
2021/08/02 03:22:08;;;;;;;5.33;4.30;;;15.40;99.90;;;;;;5029301;28;20842;-37
2021/08/02 03:24:44;;;;;;;5.60;4.33;;;15.30;99.90;;;;;;5034353;28;20444;-37
2021/08/02 03:27:25;;;;;;;6.33;4.20;;;15.30;99.90;;;;;;5034964;28;20419;-37
2021/08/02 03:29:52;;;;;;;5.20;4.70;;;15.30;99.90;;;;;;5037323;28;20419;-37
2021/08/02 03:32:20;;;;;;;7.37;4.37;;;15.20;99.90;;;;;;5029113;28;20425;-37
2021/08/02 03:34:51;;;;;;;6.57;3.80;;;15.20;99.90;;;;;;5029291;28;20421;-36
2021/08/02 03:37:19;;;;;;;10.10;4.80;;;15.20;99.90;;;;;;5027255;28;20417;-38
2021/08/02 03:39:45;;;;;;;10.43;4.33;;;15.20;99.90;;;;;;5038891;28;20464;-37
2021/08/02 03:42:12;;;;;;;4.70;4.20;;;15.10;99.90;;;;;;5041215;28;20429;-36
2021/08/02 03:44:38;;;;;;;7.43;4.60;;;15.10;99.90;;;;;;5034409;28;20409;-37
2021/08/02 03:47:04;;;;;;;7.73;4.30;;;15.20;99.90;;;;;;5032414;28;20513;-37
2021/08/02 03:49:31;;;;;;;6.50;4.13;;;15.10;99.90;;;;;;5029021;28;20470;-37
2021/08/02 03:51:59;;;;;;;5.87;4.03;;;15.10;99.90;;;;;;5029150;28;20417;-36
2021/08/02 03:54:27;;;;;;;5.00;3.77;;;15.20;99.90;;;;;;5038175;28;20901;-37
2021/08/02 03:56:54;;;;;;;4.90;4.40;;;15.20;99.90;;;;;;5042961;28;20515;-37
2021/08/02 03:59:20;;;;;;;6.27;3.67;;;15.30;99.90;;;;;;5033406;28;20443;-37
2021/08/02 04:01:47;;;;;;;5.63;4.00;;;15.20;99.90;;;;;;5037229;28;21062;-36
2021/08/02 04:04:13;;;;;;;6.20;4.23;;;15.20;99.90;;;;;;5032627;28;20413;-37
2021/08/02 04:06:39;;;;;;;4.63;3.83;;;15.20;99.90;;;;;;5028624;28;20458;-37
2021/08/02 04:09:08;;;;;;;5.90;4.60;;;15.20;99.90;;;;;;5029375;28;20444;-37
2021/08/02 04:11:34;;;;;;;5.80;4.43;;;15.20;99.90;;;;;;5044854;28;20424;-37
2021/08/02 04:14:00;;;;;;;5.53;4.20;;;15.20;99.90;;;;;;5028241;28;20457;-37
2021/08/02 04:16:25;;;;;;;5.93;4.23;;;15.10;99.90;;;;;;5026539;28;20931;-37
2021/08/02 04:18:52;;;;;;;5.83;4.00;;;15.10;99.90;;;;;;5028231;28;20278;-38
2021/08/02 04:21:18;;;;;;;6.67;4.47;;;15.10;99.90;;;;;;5028344;28;20621;-38
2021/08/02 04:23:45;;;;;;;5.70;3.77;;;15.20;99.90;;;;;;5028899;28;20433;-36
2021/08/02 04:26:12;;;;;;;7.30;4.30;;;15.10;99.90;;;;;;5040092;28;20454;-37
2021/08/02 04:28:43;;;;;;;6.80;4.30;;;15.10;99.90;;;;;;5043831;28;20830;-37
2021/08/02 04:31:09;;;;;;;7.60;4.60;;;15.10;99.90;;;;;;5035392;28;20975;-37
2021/08/02 04:33:35;;;;;;;5.93;4.57;;;15.10;99.90;;;;;;5027886;28;20768;-36
2021/08/02 04:36:01;;;;;;;7.30;4.90;;;15.10;99.90;;;;;;5028194;28;20498;-36
2021/08/02 04:38:26;;;;;;;6.00;4.50;;;15.10;99.90;;;;;;5029871;28;20243;-37
2021/08/02 04:40:52;;;;;;;4.23;3.83;;;15.00;99.90;;;;;;5039980;28;20227;-37
2021/08/02 04:43:18;;;;;;;5.23;3.80;;;15.00;99.90;;;;;;5033607;28;20214;-37
2021/08/02 04:45:43;;;;;;;8.77;4.43;;;15.00;99.90;;;;;;5028036;28;20244;-37
2021/08/02 04:48:09;;;;;;;6.60;4.00;;;15.00;99.90;;;;;;5028131;28;20205;-37
2021/08/02 04:50:35;;;;;;;8.03;4.50;;;15.00;99.90;;;;;;5026689;28;20720;-36
2021/08/02 04:53:00;;;;;;;5.27;4.40;;;15.00;99.90;;;;;;5029184;28;20293;-37
2021/08/02 04:55:26;;;;;;;6.20;4.83;;;15.00;99.90;;;;;;5033632;28;20202;-37
2021/08/02 04:57:52;;;;;;;5.90;4.53;;;15.00;99.90;;;;;;5032852;28;20193;-38
2021/08/02 05:00:17;;;;;;;4.13;3.73;;;15.10;99.90;;;;;;5026587;28;20297;-37
2021/08/02 05:02:43;;;;;;;5.53;3.93;;;15.10;99.90;;;;;;5036580;28;20201;-37
2021/08/02 05:05:09;;;;;;;4.80;4.13;;;15.10;99.90;;;;;;5027370;28;20229;-37
2021/08/02 05:07:35;;;;;;;4.93;4.00;;;15.20;99.90;;;;;;5027387;28;20923;-37
2021/08/02 05:10:01;;;;;;;6.47;4.00;;;15.20;99.90;;;;;;5037488;28;20495;-38
2021/08/02 05:12:27;;;;;;;6.83;4.10;;;15.20;99.90;;;;;;5039239;28;20191;-37
2021/08/02 05:14:52;;;;;;;4.57;4.17;;;15.20;99.90;;;;;;5027185;28;20426;-38
2021/08/02 05:17:18;;;;;;;5.30;4.50;;;15.30;99.90;;;;;;5032043;28;20251;-37
2021/08/02 05:19:44;;;;;;;6.07;4.13;;;15.30;99.90;;;;;;5034823;28;20284;-37
2021/08/02 05:22:09;;;;;;;6.60;3.80;;;15.20;99.90;;;;;;5028165;28;20293;-37
2021/08/02 05:24:35;;;;;;;5.50;4.53;;;15.10;99.90;;;;;;5029304;28;20729;-38
2021/08/02 05:27:01;;;;;;;9.37;5.07;;;15.10;99.90;;;;;;5038962;28;20190;-37
2021/08/02 05:29:27;;;;;;;4.73;4.10;;;15.10;99.90;;;;;;5044067;28;20211;-38
2021/08/02 05:31:53;;;;;;;5.03;3.90;;;15.20;99.90;;;;;;5034845;28;20433;-37
2021/08/02 05:34:18;;;;;;;7.63;5.00;;;15.20;99.90;;;;;;5031137;28;20432;-37
2021/08/02 05:36:44;;;;;;;7.40;3.67;;;15.20;99.90;;;;;;5030533;28;20217;-37
2021/08/02 05:39:10;;;;;;;7.93;4.97;;;15.30;99.90;;;;;;5031037;28;20213;-37
2021/08/02 05:41:36;;;;;;;6.73;3.87;;;15.20;99.90;;;;;;5040245;28;20282;-37
2021/08/02 05:44:02;;;;;;;5.23;3.70;;;15.20;99.90;;;;;;5037236;28;20912;-37
2021/08/02 05:46:28;;;;;;;9.23;4.57;;;15.30;99.90;;;;;;5031260;28;20574;-37
2021/08/02 05:48:54;;;;;;;6.37;5.03;;;15.30;99.90;;;;;;5039702;28;20429;-37
2021/08/02 05:51:20;;;;;;;4.30;3.90;;;15.20;99.90;;;;;;5031149;28;20201;-37
2021/08/02 05:53:45;;;;;;;5.23;3.73;;;15.30;99.90;;;;;;5030314;28;20444;-37
2021/08/02 05:56:11;;;;;;;6.20;4.10;;;15.30;99.90;;;;;;5041824;28;20202;-37
2021/08/02 05:58:38;;;;;;;6.23;4.50;;;15.30;99.90;;;;;;5046474;28;20201;-37
2021/08/02 06:01:04;;;;;;;4.17;3.77;;;15.30;99.90;;;;;;5034039;28;20504;-37
2021/08/02 06:03:30;;;;;;;5.70;3.90;;;15.30;99.90;;;;;;5034787;28;20993;-37
2021/08/02 06:05:55;;;;;;;6.90;4.40;;;15.40;99.90;;;;;;5047594;28;20248;-37
2021/08/02 06:08:21;;;;;;;6.40;5.37;;;15.40;99.90;;;;;;5049694;28;20214;-37
2021/08/02 06:10:47;;;;;;;6.83;3.57;;;15.40;99.90;;;;;;5048695;28;20195;-37
2021/08/02 06:13:13;;;;;;;5.10;3.97;;;15.40;99.90;;;;;;5047228;28;20196;-37
2021/08/02 06:15:39;;;;;;;5.90;3.90;;;15.50;99.90;;;;;;5045301;28;20788;-37
2021/08/02 06:18:04;;;;;;;5.93;3.83;;;15.50;99.90;;;;;;5040801;28;20193;-37
2021/08/02 06:20:30;;;;;;;6.50;3.70;;;15.50;99.90;;;;;;5040514;28;20262;-37
2021/08/02 06:22:55;;;;;;;4.80;4.17;;;15.50;99.90;;;;;;5050262;28;20594;-37
2021/08/02 06:25:21;;;;;;;4.90;4.03;;;15.50;99.90;;;;;;5038150;28;20187;-37
2021/08/02 06:27:47;;;;;;;9.43;4.10;;;15.50;99.90;;;;;;5030810;28;20249;-37
2021/08/02 06:30:13;;;;;;;7.73;4.13;;;15.50;99.90;;;;;;5041351;28;20194;-37
2021/08/02 06:32:38;;;;;;;4.30;3.60;;;15.60;99.90;;;;;;5035072;28;20194;-37
2021/08/02 06:35:05;;;;;;;4.37;3.97;;;15.60;99.90;;;;;;5033672;28;20258;-37
2021/08/02 06:37:30;;;;;;;8.43;4.13;;;15.50;99.90;;;;;;5030009;28;20649;-37
2021/08/02 06:39:56;;;;;;;5.17;3.60;;;15.60;99.90;;;;;;5028443;28;20475;-37
2021/08/02 06:42:22;;;;;;;5.10;3.63;;;15.60;99.90;;;;;;5038046;28;20186;-37
2021/08/02 06:44:48;;;;;;;6.57;3.53;;;15.60;99.90;;;;;;5046874;28;20278;-37
2021/08/02 06:47:13;;;;;;;6.60;3.43;;;15.60;99.90;;;;;;5046107;28;20515;-37
2021/08/02 06:49:39;;;;;;;5.57;3.87;;;15.70;99.90;;;;;;5029865;28;21110;-37
2021/08/02 06:52:05;;;;;;;5.23;3.43;;;15.60;99.90;;;;;;5030253;28;20190;-37
2021/08/02 06:54:30;;;;;;;3.80;3.30;;;15.70;99.90;;;;;;5031340;28;20186;-38
2021/08/02 06:56:56;;;;;;;4.63;3.50;;;15.70;99.90;;;;;;5041449;28;20891;-37
2021/08/02 06:59:22;;;;;;;5.93;3.17;;;15.80;99.90;;;;;;5037264;28;20201;-37
2021/08/02 07:01:48;;;;;;;5.60;3.03;;;15.80;99.90;;;;;;5029528;28;20331;-37
2021/08/02 07:04:13;;;;;;;3.57;3.17;;;15.80;99.90;;;;;;5031962;28;20723;-37
2021/08/02 07:06:41;;;;;;;5.53;2.97;;;15.90;99.90;;;;;;5049891;28;20671;-37
2021/08/02 07:09:08;;;;;;;4.83;3.30;;;15.90;99.90;;;;;;5046751;28;20205;-37
2021/08/02 07:11:33;;;;;;;6.60;3.90;;;15.90;99.90;;;;;;5034889;28;20441;-37
2021/08/02 07:13:59;;;;;;;7.60;3.70;;;15.90;99.90;;;;;;5037627;28;20429;-37
2021/08/02 07:16:25;;;;;;;5.00;3.07;;;16.00;99.90;;;;;;5029400;28;20190;-37
2021/08/02 07:18:54;;;;;;;5.80;3.27;;;16.00;99.90;;;;;;5039550;28;20193;-37
2021/08/02 07:21:21;;;;;;;4.40;2.70;;;16.10;99.90;;;;;;5028293;28;20333;-38
2021/08/02 07:23:47;;;;;;;3.40;2.80;;;16.10;99.90;;;;;;5029228;28;20441;-37
2021/08/02 07:26:14;;;;;;;4.00;3.00;;;16.20;99.90;;;;;;5041028;28;20434;-37
2021/08/02 07:28:39;;;;;;;4.43;2.73;;;16.20;99.90;;;;;;5034286;28;20433;-37
2021/08/02 07:31:05;;;;;;;3.93;2.50;;;16.30;99.90;;;;;;5037268;28;20446;-37
2021/08/02 07:33:31;;;;;;;6.23;2.60;;;16.30;99.90;;;;;;5034178;28;20220;-38
2021/08/02 07:35:56;;;;;;;5.20;2.00;;;16.30;99.90;;;;;;5033766;28;20286;-37
2021/08/02 07:38:22;;;;;;;4.50;2.40;;;16.30;99.90;;;;;;5036141;28;20874;-37
2021/08/02 07:40:48;;;;;;;7.50;2.50;;;16.30;99.90;;;;;;5045358;28;20217;-37
2021/08/02 07:43:14;;;;;;;4.10;2.17;;;16.30;99.90;;;;;;5044911;28;20214;-38
2021/08/02 07:45:40;;;;;;;3.90;2.20;;;16.20;99.90;;;;;;5037864;28;20461;-38
2021/08/02 07:48:06;;;;;;;4.40;2.67;;;16.30;99.90;;;;;;5029232;28;20682;-38
2021/08/02 07:50:32;;;;;;;6.00;2.97;;;16.30;99.90;;;;;;5028962;28;20220;-37
2021/08/02 07:52:58;;;;;;;5.03;2.87;;;16.20;99.90;;;;;;5026387;28;20186;-37
2021/08/02 07:55:23;;;;;;;3.30;2.53;;;16.30;99.90;;;;;;5029048;28;21017;-38
2021/08/02 07:57:49;;;;;;;4.90;2.77;;;16.30;99.90;;;;;;5039993;28;20194;-37
2021/08/02 08:00:18;;;;;;;4.70;2.90;;;16.30;99.90;;;;;;5033588;28;20744;-38
2021/08/02 08:02:47;;;;;;;4.57;3.00;;;16.30;99.90;;;;;;5028922;28;20612;-38
2021/08/02 08:05:14;;;;;;;3.73;2.40;;;16.30;99.90;;;;;;5038086;28;20868;-38
2021/08/02 08:07:47;;;;;;;5.13;3.00;;;16.40;99.90;;;;;;5028394;28;20516;-37
2021/08/02 08:10:21;;;;;;;3.50;2.37;;;16.40;99.90;;;;;;5029788;28;20444;-38
2021/08/02 08:12:48;;;;;;;3.63;2.50;;;16.40;99.90;;;;;;5040629;28;20437;-38
2021/08/02 08:15:15;;;;;;;7.23;2.60;;;16.40;99.90;;;;;;5034021;28;20483;-38
2021/08/02 08:17:41;;;;;;;3.47;1.80;;;16.40;99.90;;;;;;5027975;28;20433;-37
2021/08/02 08:20:08;;;;;;;2.70;2.00;;;16.40;99.90;;;;;;5034298;28;21158;-37
2021/08/02 08:22:35;;;;;;;4.67;1.83;;;16.50;99.90;;;;;;5028300;28;20614;-37
2021/08/02 08:25:01;;;;;;;3.70;2.30;;;16.50;99.90;;;;;;5027773;28;20483;-38
2021/08/02 08:27:26;;;;;;;2.63;2.43;;;16.40;99.90;;;;;;5036964;28;20417;-37
2021/08/02 08:29:52;;;;;;;5.50;2.27;;;16.40;99.90;;;;;;5035814;28;20520;-38
2021/08/02 08:32:18;;;;;;;3.90;2.33;;;16.40;99.90;;;;;;5027939;28;20198;-37
2021/08/02 08:34:43;;;;;;;3.77;2.27;;;16.40;99.90;;;;;;5029656;28;20198;-37
2021/08/02 08:37:09;;;;;;;3.80;2.50;;;16.50;99.90;;;;;;5027616;28;20201;-38
2021/08/02 08:39:35;;;;;;;1.87;1.77;;;16.50;99.90;;;;;;5027388;28;20286;-37
2021/08/02 08:42:01;;;;;;;5.37;3.03;;;16.60;99.90;;;;;;5028840;28;20507;-37
2021/08/02 08:44:28;;;;;;;2.93;2.23;;;16.60;99.90;;;;;;5030659;28;20190;-37
2021/08/02 08:46:53;;;;;;;4.10;1.80;;;16.60;99.90;;;;;;5034521;28;20281;-38
2021/08/02 08:49:19;;;;;;;3.50;2.47;;;16.60;99.90;;;;;;5047759;28;20929;-38
2021/08/02 08:51:46;;;;;;;4.83;2.73;;;16.60;99.90;;;;;;5027908;28;20255;-38
2021/08/02 08:54:12;;;;;;;4.23;2.63;;;16.70;99.90;;;;;;5027419;28;20298;-39
2021/08/02 08:56:38;;;;;;;3.43;2.30;;;16.70;99.90;;;;;;5028299;28;20563;-38
2021/08/02 08:59:03;;;;;;;4.33;2.23;;;16.80;99.90;;;;;;5039724;28;20243;-37
2021/08/02 09:01:31;;;;;;;5.43;3.00;;;16.80;99.90;;;;;;5027688;28;20829;-37
2021/08/02 09:03:58;;;;;;;7.93;3.30;;;16.80;99.90;;;;;;5033093;28;20189;-37
2021/08/02 09:06:25;;;;;;;5.60;3.00;;;16.80;99.90;;;;;;5027773;28;20467;-38
2021/08/02 09:08:51;;;;;;;3.53;3.23;;;16.80;99.90;;;;;;5026849;28;20452;-38
2021/08/02 09:11:25;;;;;;;4.40;2.77;;;16.80;99.90;;;;;;5029290;28;20437;-37
2021/08/02 09:13:52;;;;;;;4.47;2.60;;;16.80;99.90;;;;;;5036335;28;20509;-37
2021/08/02 09:16:27;;;;;;;4.23;2.87;;;16.90;99.90;;;;;;5037528;28;20428;-37
2021/08/02 09:18:59;;;;;;;3.40;3.10;;;16.90;99.90;;;;;;5029487;28;20427;-38
2021/08/02 09:21:27;;;;;;;3.07;2.70;;;16.90;99.90;;;;;;5026477;28;20479;-38
2021/08/02 09:23:55;;;;;;;3.10;2.60;;;16.90;99.90;;;;;;5033765;28;20438;-37
2021/08/02 09:26:32;;;;;;;4.40;2.80;;;17.00;99.90;;;;;;5041074;28;21066;-38
2021/08/02 09:28:58;;;;;;;3.50;2.53;;;17.10;99.90;;;;;;5039324;28;20443;-38
2021/08/02 09:31:37;;;;;;;3.00;2.60;;;17.10;99.90;;;;;;5029193;28;20440;-38
2021/08/02 09:34:08;;;;;;;3.30;2.80;;;17.10;99.90;;;;;;5031854;28;20423;-38
2021/08/02 09:36:49;;;;;;;5.90;3.23;;;17.20;99.90;;;;;;5036020;28;20732;-37
2021/08/02 09:39:16;;;;;;;4.53;3.30;;;17.20;99.90;;;;;;5047049;28;20482;-38
2021/08/02 09:41:43;;;;;;;4.00;3.60;;;17.10;99.90;;;;;;5034787;28;20500;-38
2021/08/02 09:44:23;;;;;;;4.70;4.03;;;17.10;99.90;;;;;;5037819;28;20428;-38
2021/08/02 09:46:56;;;;;;;5.47;3.90;;;17.10;99.90;;;;;;5027242;28;20421;-38
2021/08/02 09:49:22;;;;;;;5.17;4.70;;;17.20;99.90;;;;;;5037873;28;20428;-37
2021/08/02 09:51:48;;;;;;;6.27;5.67;;;17.30;99.90;;;;;;5050755;28;20497;-38
2021/08/02 09:54:27;;;;;;;5.50;4.90;;;17.30;99.90;;;;;;5044257;28;20502;-37
2021/08/02 09:56:54;;;;;;;6.17;4.70;;;17.40;99.90;;;;;;5041116;28;20197;-37
2021/08/02 09:59:20;;;;;;;6.50;5.37;;;17.40;99.90;;;;;;5042147;28;20895;-37
2021/08/02 10:01:50;;;;;;;5.50;4.97;;;17.50;99.90;;;;;;5040731;28;20472;-37
2021/08/02 10:04:16;;;;;;;5.73;5.10;;;17.60;99.90;;;;;;5031591;28;20424;-37
2021/08/02 10:06:43;;;;;;;5.83;5.10;;;17.70;99.90;;;;;;5036340;28;20477;-38
2021/08/02 10:09:11;;;;;;;7.53;6.03;;;17.70;99.90;;;;;;5045233;28;20434;-37
2021/08/02 10:11:37;;;;;;;6.30;5.40;;;17.80;99.90;;;;;;5028547;28;20452;-37
2021/08/02 10:14:03;;;;;;;6.93;6.23;;;17.90;99.90;;;;;;5040639;28;20426;-38
2021/08/02 10:16:30;;;;;;;8.03;7.33;;;17.90;99.90;;;;;;5043463;28;20584;-38
2021/08/02 10:19:09;;;;;;;8.33;6.03;;;17.90;99.90;;;;;;5035884;28;20451;-37
2021/08/02 10:21:48;;;;;;;5.07;4.60;;;17.90;99.90;;;;;;5047629;28;20460;-37
2021/08/02 10:24:16;;;;;;;5.13;4.63;;;18.00;99.90;;;;;;5036510;28;21146;-38
2021/08/02 10:26:57;;;;;;;5.27;4.77;;;18.00;99.90;;;;;;5040285;28;20444;-37
2021/08/02 10:29:24;;;;;;;5.83;5.23;;;18.00;99.90;;;;;;5042987;28;20451;-37
2021/08/02 10:31:51;;;;;;;6.20;4.47;;;18.10;99.90;;;;;;5031232;28;20417;-37
2021/08/02 10:34:22;;;;;;;5.33;4.10;;;18.00;99.90;;;;;;5032286;28;20420;-38
2021/08/02 10:36:57;;;;;;;5.40;5.00;;;18.00;99.90;;;;;;5031542;28;20425;-39
2021/08/02 10:39:24;;;;;;;6.63;5.97;;;18.10;99.90;;;;;;5030080;28;20423;-37
2021/08/02 10:41:50;;;;;;;7.60;5.73;;;18.10;99.90;;;;;;5032728;28;20474;-38
2021/08/02 10:44:18;;;;;;;6.93;4.67;;;18.10;99.90;;;;;;5044042;28;20425;-38
2021/08/02 10:46:44;;;;;;;6.03;5.13;;;18.20;99.90;;;;;;5042879;28;20436;-37
2021/08/02 10:49:12;;;;;;;5.83;5.13;;;18.30;99.90;;;;;;5035793;28;20425;-37
2021/08/02 10:51:59;;;;;;;6.53;4.87;;;18.30;99.90;;;;;;5039782;28;20190;-38
2021/08/02 10:54:37;;;;;;;6.67;5.27;;;18.50;99.90;;;;;;5044500;28;20432;-38
2021/08/02 10:57:13;;;;;;;4.90;4.40;;;18.60;99.90;;;;;;5039352;28;20602;-38
2021/08/02 10:59:40;;;;;;;5.73;5.23;;;18.70;99.90;;;;;;5042647;28;20743;-38
2021/08/02 11:02:11;;;;;;;5.50;5.10;;;18.70;99.90;;;;;;5039204;28;21313;-38
2021/08/02 11:04:37;;;;;;;6.20;5.60;;;18.80;99.90;;;;;;5038786;28;20420;-39
2021/08/02 11:07:04;;;;;;;6.07;5.57;;;18.90;99.90;;;;;;5037564;28;20491;-38
2021/08/02 11:09:31;;;;;;;5.73;5.23;;;18.90;99.90;;;;;;5029291;28;20445;-40
2021/08/02 11:12:14;;;;;;;6.00;5.50;;;19.00;99.90;;;;;;5037280;28;20519;-38
2021/08/02 11:14:50;;;;;;;6.47;5.90;;;19.00;99.90;;;;;;5034086;28;20777;-37
2021/08/02 11:17:27;;;;;;;5.53;5.13;;;19.10;99.90;;;;;;5040157;28;20416;-38
2021/08/02 11:20:08;;;;;;;5.37;4.87;;;19.10;99.90;;;;;;5037500;28;20417;-38
2021/08/02 11:22:46;;;;;;;5.67;4.70;;;19.10;99.90;;;;;;5037192;28;20427;-38
2021/08/02 11:25:12;;;;;;;4.80;4.30;;;19.10;99.90;;;;;;5030794;28;20517;-37
2021/08/02 11:27:37;;;;;;;4.20;3.80;;;19.00;99.90;;;;;;5034375;28;20974;-38
2021/08/02 11:30:03;;;;;;;4.43;3.97;;;19.10;99.90;;;;;;5045588;28;20652;-37
2021/08/02 11:32:30;;;;;;;4.17;3.87;;;19.00;99.90;;;;;;5046022;28;20182;-37
2021/08/02 11:34:57;;;;;;;4.60;3.60;;;19.00;99.90;;;;;;5033636;28;20429;-37
2021/08/02 11:37:25;;;;;;;3.90;3.60;;;19.00;99.90;;;;;;5028493;28;20474;-37
2021/08/02 11:40:04;;;;;;;5.57;3.30;;;19.00;99.90;;;;;;5028636;28;20483;-39
2021/08/02 11:42:31;;;;;;;3.20;2.93;;;19.10;99.90;;;;;;5034997;28;20521;-39
2021/08/02 11:44:59;;;;;;;3.50;2.90;;;19.10;99.90;;;;;;5046325;28;20544;-38
2021/08/02 11:47:27;;;;;;;2.80;2.50;;;19.00;99.90;;;;;;5029144;28;20451;-38
2021/08/02 11:49:55;;;;;;;3.37;3.07;;;19.00;99.90;;;;;;5032782;28;20424;-38
2021/08/02 11:52:23;;;;;;;5.90;3.13;;;19.00;99.90;;;;;;5037698;28;20421;-37
2021/08/02 11:55:04;;;;;;;3.53;2.67;;;19.00;99.90;;;;;;5038178;28;20412;-38
2021/08/02 11:57:30;;;;;;;6.73;2.83;;;19.00;99.90;;;;;;5036993;28;20447;-37
2021/08/02 12:00:00;;;;;;;5.37;2.60;;;19.00;99.90;;;;;;5042357;28;21331;-38
2021/08/02 12:02:36;;;;;;;3.13;2.83;;;19.10;99.90;;;;;;5040540;28;20399;-37
2021/08/02 12:05:25;;;;;;;3.97;3.10;;;19.10;99.90;;;;;;5037896;28;20420;-38
2021/08/02 12:07:52;;;;;;;3.50;2.80;;;19.10;99.90;;;;;;5037359;28;20423;-40
2021/08/02 12:10:22;;;;;;;5.07;3.47;;;19.10;99.90;;;;;;5037376;28;20425;-37
2021/08/02 12:13:12;;;;;;;2.57;2.37;;;19.10;99.90;;;;;;5031671;28;20429;-38
2021/08/02 12:15:58;;;;;;;7.23;3.10;;;19.10;99.90;;;;;;5047750;28;20426;-38
2021/08/02 12:18:27;;;;;;;3.73;3.20;;;19.10;99.90;;;;;;5034079;28;20816;-37
2021/08/02 12:20:54;;;;;;;4.57;3.63;;;19.00;99.90;;;;;;5034184;28;20461;-39
2021/08/02 12:23:25;;;;;;;3.57;3.07;;;19.10;99.90;;;;;;5035370;28;20421;-38
2021/08/02 12:25:51;;;;;;;3.30;3.00;;;19.10;99.90;;;;;;5026858;28;20508;-37
2021/08/02 12:28:17;;;;;;;3.50;3.03;;;19.20;99.90;;;;;;5045816;28;20459;-38
2021/08/02 12:30:43;;;;;;;3.40;3.20;;;19.30;99.90;;;;;;5042116;28;20878;-39
2021/08/02 12:33:11;;;;;;;3.90;3.60;;;19.30;99.90;;;;;;5034429;28;20312;-38
2021/08/02 12:35:38;;;;;;;3.63;3.20;;;19.40;99.90;;;;;;5028472;28;20417;-38
2021/08/02 12:38:05;;;;;;;3.50;3.20;;;19.50;99.90;;;;;;5027112;28;20425;-38
2021/08/02 12:40:32;;;;;;;3.70;3.37;;;19.50;99.90;;;;;;5028116;28;20461;-38
2021/08/02 12:42:58;;;;;;;4.40;4.00;;;19.60;99.90;;;;;;5031664;28;20519;-40
2021/08/02 12:45:23;;;;;;;4.80;4.43;;;19.70;99.90;;;;;;5043458;28;20982;-41
2021/08/02 12:47:50;;;;;;;4.60;4.20;;;19.70;99.90;;;;;;5028426;28;20190;-39
2021/08/02 12:50:18;;;;;;;5.00;3.97;;;19.70;99.90;;;;;;5031892;28;20568;-38
2021/08/02 12:52:44;;;;;;;4.90;4.50;;;19.80;99.90;;;;;;5033156;28;20460;-39
2021/08/02 12:55:11;;;;;;;4.30;3.60;;;19.70;99.90;;;;;;5027698;28;20444;-39